Time;durP1;ratioP1;P1;durP2;ratioP2;P2;SDS_P1;SDS_P2;PMS_P1;PMS_P2;Temp;Humidity;BMP_temperature;BMP_pressure;BME280_temperature;BME280_humidity;BME280_pressure;Samples;Min_cycle;Max_cycle;Signal;HPM_P1;HPM_P2
2022/04/29 00:02:10;;;;;;;18.02;7.38;;;;;;;7.35;90.17;103289.72;7382190;19;20082;-73
2022/04/29 00:04:44;;;;;;;16.88;7.40;;;;;;;7.32;90.16;103285.19;7380616;19;20586;-73
2022/04/29 00:07:15;;;;;;;19.42;7.30;;;;;;;7.29;90.66;103282.41;7375715;19;20017;-73
2022/04/29 00:09:51;;;;;;;19.98;7.13;;;;;;;7.28;90.42;103279.72;7379656;19;20003;-73
2022/04/29 00:12:22;;;;;;;24.25;7.82;;;;;;;7.22;90.81;103281.13;7380218;19;20100;-72
2022/04/29 00:14:52;;;;;;;13.90;6.78;;;;;;;7.20;90.56;103276.59;7379647;19;20007;-72
2022/04/29 00:17:22;;;;;;;15.30;7.38;;;;;;;7.16;90.93;103272.00;7377913;19;20039;-72
2022/04/29 00:19:52;;;;;;;18.52;7.38;;;;;;;7.17;91.28;103265.97;7379568;19;20026;-72
2022/04/29 00:22:22;;;;;;;19.02;7.53;;;;;;;7.16;90.60;103261.53;7375137;19;20015;-71
2022/04/29 00:24:55;;;;;;;16.20;6.75;;;;;;;7.05;91.38;103258.22;7378583;19;20089;-71
2022/04/29 00:27:25;;;;;;;18.42;7.72;;;;;;;7.06;90.89;103261.75;7380024;19;20010;-71
2022/04/29 00:29:55;;;;;;;15.95;6.65;;;;;;;7.01;91.34;103253.63;7378321;19;20038;-71
2022/04/29 00:32:26;;;;;;;21.30;7.40;;;;;;;7.05;90.65;103250.41;7378251;19;20348;-70
2022/04/29 00:34:55;;;;;;;22.48;7.43;;;;;;;7.05;90.50;103246.91;7377486;19;20017;-71
2022/04/29 00:37:26;;;;;;;16.73;6.18;;;;;;;7.08;90.57;103249.69;7375588;19;20490;-70
2022/04/29 00:39:59;;;;;;;19.65;6.57;;;;;;;7.04;90.68;103252.91;7378160;19;20014;-71
2022/04/29 00:42:29;;;;;;;19.92;7.00;;;;;;;6.94;90.88;103256.63;7378189;19;20086;-71
2022/04/29 00:44:59;;;;;;;19.75;7.18;;;;;;;6.96;91.03;103254.13;7375275;19;20030;-71
2022/04/29 00:47:29;;;;;;;15.52;7.13;;;;;;;6.94;91.04;103255.72;7376875;19;20003;-70
2022/04/29 00:50:02;;;;;;;28.90;8.90;;;;;;;6.91;91.35;103239.84;7377708;19;20007;-70
2022/04/29 00:52:33;;;;;;;21.90;7.05;;;;;;;6.88;91.40;103246.69;7372318;19;20350;-71
2022/04/29 00:55:10;;;;;;;17.65;7.57;;;;;;;6.87;91.46;103244.88;7378913;19;20034;-70
2022/04/29 00:57:53;;;;;;;16.25;7.18;;;;;;;6.88;91.46;103244.06;7379808;19;20010;-72
2022/04/29 01:00:26;;;;;;;18.73;7.63;;;;;;;6.90;91.65;103241.56;7379962;19;20018;-70
2022/04/29 01:02:57;;;;;;;18.15;7.57;;;;;;;6.92;91.45;103245.19;7373832;19;20003;-73
2022/04/29 01:05:31;;;;;;;15.85;6.18;;;;;;;6.84;91.75;103239.44;7379516;19;20006;-73
2022/04/29 01:08:02;;;;;;;21.23;8.55;;;;;;;6.85;91.92;103238.66;7374821;19;20044;-71
2022/04/29 01:10:35;;;;;;;19.40;8.18;;;;;;;6.87;91.60;103243.97;7380842;19;20010;-72
2022/04/29 01:13:06;;;;;;;19.40;7.82;;;;;;;6.88;91.45;103243.16;7377989;19;20014;-73
2022/04/29 01:15:37;;;;;;;19.10;7.60;;;;;;;6.80;91.65;103234.84;7377251;19;20092;-73
2022/04/29 01:18:11;;;;;;;22.10;7.43;;;;;;;6.79;92.14;103234.72;7375208;19;20048;-73
2022/04/29 01:20:44;;;;;;;17.92;7.95;;;;;;;6.74;92.32;103229.22;7375921;19;20014;-73
2022/04/29 01:23:19;;;;;;;18.55;7.90;;;;;;;6.73;92.43;103230.00;7378917;19;20033;-73
2022/04/29 01:25:52;;;;;;;20.60;8.55;;;;;;;6.75;92.11;103223.19;7376317;19;20417;-73
2022/04/29 01:28:23;;;;;;;26.70;10.07;;;;;;;6.69;92.57;103228.00;7378901;19;20490;-73
2022/04/29 01:30:56;;;;;;;20.92;8.13;;;;;;;6.70;92.31;103224.59;7380545;19;20268;-73
2022/04/29 01:33:28;;;;;;;23.42;8.85;;;;;;;6.68;92.43;103226.19;7377200;19;20022;-73
2022/04/29 01:35:59;;;;;;;20.08;8.50;;;;;;;6.71;92.77;103223.78;7385147;19;20485;-73
2022/04/29 01:38:31;;;;;;;20.50;7.85;;;;;;;6.72;92.64;103222.09;7383307;19;20030;-71
2022/04/29 01:41:01;;;;;;;25.38;8.80;;;;;;;6.76;92.30;103216.28;7386396;19;20433;-71
2022/04/29 01:43:31;;;;;;;20.40;8.30;;;;;;;6.70;92.48;103213.25;7389169;19;20022;-73
2022/04/29 01:46:01;;;;;;;29.05;8.40;;;;;;;6.71;92.63;103215.06;7390692;19;20393;-73
2022/04/29 01:48:31;;;;;;;22.08;8.80;;;;;;;6.66;92.62;103217.34;7393902;19;20010;-73
2022/04/29 01:51:05;;;;;;;22.60;8.15;;;;;;;6.64;92.93;103208.53;7391944;19;20023;-73
2022/04/29 01:53:38;;;;;;;25.13;9.10;;;;;;;6.67;92.87;103207.84;7386987;19;20010;-71
2022/04/29 01:56:08;;;;;;;22.48;8.02;;;;;;;6.61;93.28;103208.31;7389164;19;20013;-71
2022/04/29 01:58:38;;;;;;;24.48;9.45;;;;;;;6.63;93.19;103198.91;7391277;19;20022;-71
2022/04/29 02:01:09;;;;;;;24.00;9.55;;;;;;;6.62;93.02;103191.88;7386492;19;20079;-70
2022/04/29 02:03:40;;;;;;;24.25;9.25;;;;;;;6.59;93.10;103198.59;7386850;19;20002;-70
2022/04/29 02:06:10;;;;;;;24.90;9.00;;;;;;;6.60;93.25;103201.31;7387522;19;20053;-70
2022/04/29 02:08:42;;;;;;;37.55;10.60;;;;;;;6.59;93.30;103204.72;7382630;19;20046;-72
2022/04/29 02:11:12;;;;;;;22.20;8.85;;;;;;;6.59;93.30;103201.19;7386059;19;20445;-72
2022/04/29 02:13:42;;;;;;;27.75;8.27;;;;;;;6.60;93.02;103206.53;7382014;19;20495;-74
2022/04/29 02:16:12;;;;;;;28.02;9.85;;;;;;;6.62;93.44;103206.63;7379069;19;20015;-74
2022/04/29 02:18:43;;;;;;;21.33;9.23;;;;;;;6.61;93.42;103213.53;7383020;19;20022;-73
2022/04/29 02:21:12;;;;;;;19.15;8.65;;;;;;;6.56;93.58;103215.84;7381118;19;20002;-74
2022/04/29 02:23:45;;;;;;;26.58;8.85;;;;;;;6.52;93.53;103218.13;7383376;19;20048;-73
2022/04/29 02:26:18;;;;;;;26.83;9.70;;;;;;;6.55;93.70;103210.53;7379473;19;20007;-73
2022/04/29 02:28:48;;;;;;;21.85;9.02;;;;;;;6.55;93.61;103213.13;7381253;19;20023;-73
2022/04/29 02:31:19;;;;;;;22.13;9.18;;;;;;;6.51;93.60;103216.34;7382953;19;20018;-74
2022/04/29 02:33:51;;;;;;;24.77;8.93;;;;;;;6.46;94.07;103207.28;7382573;19;20007;-71
2022/04/29 02:36:24;;;;;;;20.02;9.10;;;;;;;6.50;93.65;103209.31;7380995;19;20013;-71
2022/04/29 02:38:59;;;;;;;22.13;11.15;;;;;;;6.49;93.77;103207.50;7381105;19;20320;-71
2022/04/29 02:41:29;;;;;;;28.23;10.05;;;;;;;6.50;93.56;103196.28;7382519;19;20382;-71
2022/04/29 02:43:59;;;;;;;22.85;9.52;;;;;;;6.53;93.78;103200.00;7378141;19;20031;-71
2022/04/29 02:46:29;;;;;;;21.17;8.68;;;;;;;6.47;93.73;103188.25;7380180;19;20014;-71
2022/04/29 02:49:02;;;;;;;24.15;9.00;;;;;;;6.49;93.94;103187.56;7381776;19;20450;-72
2022/04/29 02:51:32;;;;;;;25.83;10.63;;;;;;;6.51;94.01;103182.44;7378874;19;20011;-72
2022/04/29 02:54:04;;;;;;;24.83;9.25;;;;;;;6.50;93.74;103189.34;7376781;19;20010;-73
2022/04/29 02:56:34;;;;;;;18.73;9.43;;;;;;;6.51;94.10;103190.25;7378020;19;20503;-72
2022/04/29 02:59:04;;;;;;;21.55;8.77;;;;;;;6.49;94.06;103184.03;7381298;19;20027;-73
2022/04/29 03:01:34;;;;;;;25.63;9.38;;;;;;;6.47;94.35;103190.84;7377809;19;20018;-72
2022/04/29 03:04:04;;;;;;;21.80;9.35;;;;;;;6.49;94.56;103189.25;7381274;19;20014;-73
2022/04/29 03:06:34;;;;;;;28.83;9.20;;;;;;;6.46;94.48;103189.03;7379333;19;20035;-72
2022/04/29 03:09:07;;;;;;;21.55;9.05;;;;;;;6.45;94.49;103188.16;7380964;19;20025;-73
2022/04/29 03:11:39;;;;;;;32.70;10.05;;;;;;;6.42;94.82;103187.94;7379166;19;20022;-70
2022/04/29 03:14:09;;;;;;;29.30;9.52;;;;;;;6.46;94.46;103186.44;7378730;19;20021;-70
2022/04/29 03:16:39;;;;;;;21.65;8.75;;;;;;;6.41;94.51;103188.75;7379768;19;20010;-71
2022/04/29 03:19:09;;;;;;;20.98;8.60;;;;;;;6.41;94.98;103199.16;7380037;19;20019;-71
2022/04/29 03:21:39;;;;;;;22.55;9.88;;;;;;;6.38;94.97;103195.44;7379912;19;20049;-70
2022/04/29 03:24:12;;;;;;;22.67;9.05;;;;;;;6.35;95.02;103195.25;7381696;19;20018;-72
2022/04/29 03:26:45;;;;;;;22.88;8.77;;;;;;;6.31;95.61;103190.63;7377378;19;20007;-73
2022/04/29 03:29:18;;;;;;;21.75;9.20;;;;;;;6.31;95.77;103194.13;7381808;19;20499;-74
2022/04/29 03:31:49;;;;;;;23.95;9.38;;;;;;;6.31;95.31;103190.63;7378442;19;20014;-72
2022/04/29 03:34:24;;;;;;;23.02;8.60;;;;;;;6.28;95.70;103193.00;7381082;19;20014;-73
2022/04/29 03:36:56;;;;;;;24.73;9.65;;;;;;;6.31;95.78;103195.84;7381822;19;20078;-73
2022/04/29 03:39:28;;;;;;;25.38;9.40;;;;;;;6.23;96.32;103188.44;7384244;19;20015;-73
2022/04/29 03:41:59;;;;;;;25.75;9.15;;;;;;;6.24;96.29;103186.69;7381183;19;20518;-73
2022/04/29 03:44:29;;;;;;;24.10;9.25;;;;;;;6.21;96.25;103176.09;7382801;19;20039;-73
2022/04/29 03:46:59;;;;;;;21.17;8.35;;;;;;;6.27;96.15;103178.19;7383382;19;20043;-73
2022/04/29 03:49:38;;;;;;;18.50;8.05;;;;;;;6.23;96.42;103167.59;7383538;19;20047;-73
2022/04/29 03:52:09;;;;;;;18.45;8.90;;;;;;;6.19;96.75;103155.16;7378559;19;20486;-73
2022/04/29 03:54:41;;;;;;;21.67;8.65;;;;;;;6.19;96.66;103149.94;7380810;19;20502;-73
2022/04/29 03:57:12;;;;;;;23.80;9.63;;;;;;;6.16;96.61;103148.81;7379969;19;20006;-73
2022/04/29 03:59:42;;;;;;;25.63;8.90;;;;;;;6.11;97.25;103145.00;7378553;19;20014;-73
2022/04/29 04:02:13;;;;;;;22.77;8.77;;;;;;;6.10;96.72;103149.31;7373913;19;20042;-72
2022/04/29 04:04:44;;;;;;;20.25;8.73;;;;;;;6.10;97.10;103140.59;7380187;19;20045;-72
2022/04/29 04:07:19;;;;;;;19.67;8.32;;;;;;;6.07;97.45;103148.19;7379157;19;20007;-71
2022/04/29 04:09:51;;;;;;;22.55;7.97;;;;;;;6.08;97.38;103150.91;7378517;19;20040;-71
2022/04/29 04:12:22;;;;;;;19.83;8.50;;;;;;;6.05;97.70;103149.78;7379977;19;20498;-71
2022/04/29 04:14:52;;;;;;;17.80;7.57;;;;;;;6.03;97.60;103154.91;7378782;19;20021;-71
2022/04/29 04:17:22;;;;;;;21.10;8.43;;;;;;;6.01;97.94;103147.78;7378520;19;20023;-70
2022/04/29 04:19:58;;;;;;;20.48;7.72;;;;;;;6.04;97.94;103145.38;7376133;19;20391;-70
2022/04/29 04:22:29;;;;;;;17.58;7.60;;;;;;;6.02;98.18;103144.38;7375692;19;20014;-73
2022/04/29 04:25:03;;;;;;;22.38;8.00;;;;;;;6.05;98.08;103139.38;7377955;19;20054;-73
2022/04/29 04:27:33;;;;;;;16.40;7.72;;;;;;;6.03;98.19;103140.97;7378534;19;20023;-71
2022/04/29 04:30:04;;;;;;;18.75;9.00;;;;;;;6.06;98.12;103138.56;7378938;19;20007;-70
2022/04/29 04:32:37;;;;;;;23.02;8.15;;;;;;;6.04;98.13;103138.47;7377065;19;20074;-71
2022/04/29 04:35:11;;;;;;;17.03;7.30;;;;;;;6.07;98.18;103143.88;7379901;19;20017;-71
2022/04/29 04:37:41;;;;;;;16.48;7.55;;;;;;;6.10;98.21;103138.88;7379145;19;20015;-72
2022/04/29 04:40:15;;;;;;;16.80;7.20;;;;;;;6.04;98.50;103134.97;7380400;19;20545;-71
2022/04/29 04:42:47;;;;;;;17.48;8.05;;;;;;;6.10;98.38;103135.38;7375006;19;20056;-72
2022/04/29 04:45:19;;;;;;;17.52;8.23;;;;;;;6.06;98.43;103134.25;7377631;19;20631;-71
2022/04/29 04:47:51;;;;;;;18.55;6.85;;;;;;;6.05;98.69;103142.88;7380597;19;20045;-71
2022/04/29 04:50:22;;;;;;;20.27;7.95;;;;;;;6.09;98.48;103147.50;7379510;19;20027;-71
2022/04/29 04:52:52;;;;;;;19.30;7.22;;;;;;;6.02;98.46;103155.69;7373390;19;20031;-71
2022/04/29 04:55:26;;;;;;;18.17;7.38;;;;;;;6.05;98.74;103155.00;7376998;19;20058;-70
2022/04/29 04:57:56;;;;;;;18.73;7.28;;;;;;;6.08;98.44;103156.13;7378442;19;20007;-73
2022/04/29 05:00:26;;;;;;;19.50;7.50;;;;;;;6.13;98.35;103153.81;7376975;19;20090;-73
2022/04/29 05:02:56;;;;;;;18.42;7.55;;;;;;;6.09;98.07;103170.94;7380210;19;20003;-74
2022/04/29 05:05:27;;;;;;;13.70;6.70;;;;;;;6.11;98.47;103171.06;7382713;19;20074;-74
2022/04/29 05:07:56;;;;;;;16.80;6.78;;;;;;;6.14;98.15;103171.25;7380995;19;20007;-70
2022/04/29 05:10:29;;;;;;;17.73;7.03;;;;;;;6.10;98.54;103172.75;7391551;19;20002;-70
2022/04/29 05:13:00;;;;;;;15.93;6.93;;;;;;;6.18;98.39;103175.88;7390109;19;20007;-71
2022/04/29 05:15:31;;;;;;;15.10;6.95;;;;;;;6.21;98.16;103179.59;7388335;19;20002;-71
2022/04/29 05:18:00;;;;;;;15.85;6.70;;;;;;;6.23;98.10;103169.28;7391288;19;20381;-70
2022/04/29 05:20:31;;;;;;;14.05;6.35;;;;;;;6.27;97.88;103168.66;7392395;19;20011;-71
2022/04/29 05:23:01;;;;;;;18.25;7.75;;;;;;;6.31;97.96;103172.38;7390972;19;20007;-71
2022/04/29 05:25:33;;;;;;;18.85;7.40;;;;;;;6.39;97.39;103168.59;7390338;19;20510;-71
2022/04/29 05:28:03;;;;;;;17.65;6.82;;;;;;;6.49;97.12;103165.78;7387987;19;20018;-71
2022/04/29 05:30:34;;;;;;;17.58;7.50;;;;;;;6.52;96.87;103158.19;7386284;19;20025;-71
2022/04/29 05:33:04;;;;;;;16.13;6.38;;;;;;;6.61;96.59;103168.31;7386916;19;20435;-71
2022/04/29 05:35:36;;;;;;;16.95;6.45;;;;;;;6.62;96.50;103162.28;7387407;19;20031;-71
2022/04/29 05:38:07;;;;;;;17.83;6.53;;;;;;;6.73;95.76;103163.91;7388010;19;20087;-71
2022/04/29 05:43:22;;;;;;;14.85;7.03;;;;;;;6.78;95.02;103171.22;7386595;19;20121;-70
2022/04/29 05:45:52;;;;;;;18.98;6.95;;;;;;;6.89;94.83;103170.22;7386142;19;20015;-70
2022/04/29 05:48:22;;;;;;;14.98;7.20;;;;;;;6.96;94.41;103174.13;7389437;19;20011;-70
2022/04/29 05:50:52;;;;;;;12.88;6.63;;;;;;;6.96;94.09;103170.63;7385635;19;20056;-71
2022/04/29 05:53:22;;;;;;;21.60;7.60;;;;;;;6.89;94.08;103178.06;7383428;19;20007;-70
2022/04/29 05:55:54;;;;;;;14.02;5.97;;;;;;;6.91;94.50;103182.47;7386196;19;20021;-71
2022/04/29 05:58:24;;;;;;;15.25;6.72;;;;;;;6.93;94.14;103180.88;7388441;19;20018;-70
2022/04/29 06:00:58;;;;;;;20.42;6.82;;;;;;;6.98;93.95;103179.47;7383771;19;20015;-70
2022/04/29 06:03:31;;;;;;;15.85;6.75;;;;;;;7.02;93.60;103177.16;7385068;19;20047;-70
2022/04/29 06:06:01;;;;;;;18.20;6.22;;;;;;;7.10;93.62;103181.16;7386483;19;20018;-71
2022/04/29 06:08:31;;;;;;;17.23;6.80;;;;;;;7.12;93.43;103183.88;7384828;19;20015;-70
2022/04/29 06:11:03;;;;;;;16.55;6.32;;;;;;;7.15;93.21;103184.06;7384771;19;20046;-70
2022/04/29 06:13:33;;;;;;;15.10;6.72;;;;;;;7.20;92.61;103177.44;7385431;19;20035;-70
2022/04/29 06:16:04;;;;;;;14.80;6.80;;;;;;;7.27;92.83;103190.06;7384679;19;20505;-71
2022/04/29 06:18:34;;;;;;;15.20;6.82;;;;;;;7.31;92.04;103193.75;7384149;19;20463;-71
2022/04/29 06:21:04;;;;;;;20.95;8.02;;;;;;;7.47;91.78;103184.38;7377931;19;20014;-71
2022/04/29 06:23:35;;;;;;;15.63;6.50;;;;;;;7.60;91.71;103174.69;7381929;19;20580;-71
2022/04/29 06:26:08;;;;;;;17.73;6.53;;;;;;;7.68;90.89;103189.13;7383860;19;20498;-71
2022/04/29 06:28:38;;;;;;;16.77;6.85;;;;;;;7.72;90.67;103185.91;7384066;19;20026;-72
2022/04/29 06:31:09;;;;;;;16.08;6.75;;;;;;;7.73;90.17;103198.16;7384973;19;20010;-73
2022/04/29 06:33:40;;;;;;;17.00;6.97;;;;;;;7.76;90.18;103196.66;7381532;19;20216;-74
2022/04/29 06:36:11;;;;;;;18.10;6.38;;;;;;;7.85;89.60;103186.75;7381592;19;20007;-74
2022/04/29 06:38:40;;;;;;;20.90;9.48;;;;;;;7.94;89.38;103198.59;7380285;19;20526;-74
2022/04/29 06:41:13;;;;;;;16.52;6.45;;;;;;;7.92;88.58;103190.66;7381404;19;20367;-74
2022/04/29 06:43:43;;;;;;;14.23;6.65;;;;;;;8.04;88.24;103200.97;7383941;19;20018;-76
2022/04/29 06:46:14;;;;;;;17.40;6.40;;;;;;;8.28;88.13;103204.16;7378808;19;20007;-74
2022/04/29 06:48:45;;;;;;;18.13;7.22;;;;;;;8.58;86.68;103203.38;7382067;19;20010;-71
2022/04/29 06:51:18;;;;;;;16.38;6.28;;;;;;;8.63;85.96;103199.31;7378194;19;20021;-73
2022/04/29 06:53:51;;;;;;;15.65;6.22;;;;;;;8.61;85.10;103203.53;7375085;19;20010;-73
2022/04/29 06:56:24;;;;;;;16.85;6.88;;;;;;;8.59;85.14;103213.03;7380480;19;20226;-74
2022/04/29 06:58:59;;;;;;;13.50;6.25;;;;;;;8.57;84.44;103212.03;7379798;19;20014;-75
2022/04/29 07:01:29;;;;;;;17.48;7.10;;;;;;;8.40;85.37;103211.03;7381918;19;20002;-73
2022/04/29 07:03:59;;;;;;;14.00;6.13;;;;;;;8.42;85.65;103209.41;7382436;19;20343;-74
2022/04/29 07:06:31;;;;;;;12.15;6.25;;;;;;;8.46;85.21;103206.16;7381365;19;20010;-74
2022/04/29 07:09:03;;;;;;;16.27;6.78;;;;;;;8.46;85.00;103219.22;7382963;19;20006;-74
2022/04/29 07:11:36;;;;;;;16.75;5.88;;;;;;;8.39;84.82;103210.94;7382064;19;20017;-73
2022/04/29 07:14:07;;;;;;;22.80;7.38;;;;;;;8.44;85.15;103205.16;7380241;19;20045;-72
2022/04/29 07:16:37;;;;;;;19.02;6.55;;;;;;;8.54;84.96;103206.63;7381151;19;20015;-71
2022/04/29 07:19:08;;;;;;;15.00;6.70;;;;;;;8.47;84.78;103194.88;7381626;19;20347;-71
2022/04/29 07:21:38;;;;;;;22.67;6.68;;;;;;;8.51;85.20;103190.75;7374245;19;20010;-71
2022/04/29 07:24:12;;;;;;;15.02;5.70;;;;;;;8.44;85.08;103183.34;7381109;19;20034;-75
2022/04/29 07:26:48;;;;;;;15.18;6.75;;;;;;;8.48;84.97;103175.78;7382889;19;20007;-74
2022/04/29 07:29:19;;;;;;;16.45;6.00;;;;;;;8.46;85.24;103181.72;7384865;19;20022;-74
2022/04/29 07:31:51;;;;;;;18.65;6.43;;;;;;;8.46;85.47;103171.25;7384229;19;20010;-75
2022/04/29 07:41:44;;;;;;;16.42;6.88;;;;;;;8.55;85.30;103184.88;7384137;19;20034;-74
2022/04/29 07:42:48;;;;;;;15.82;6.20;;;;;;;8.70;83.75;103177.94;7382479;19;20006;-71
2022/04/29 07:45:20;;;;;;;15.15;6.65;;;;;;;8.74;82.85;103171.16;7382351;19;20550;-71
2022/04/29 07:47:52;;;;;;;16.55;7.13;;;;;;;8.71;83.51;103168.38;7379146;19;20015;-73
2022/04/29 07:50:23;;;;;;;15.60;6.30;;;;;;;8.76;83.38;103169.53;7376156;19;20501;-73
2022/04/29 07:52:59;;;;;;;19.95;7.63;;;;;;;8.77;82.68;103179.19;7375263;19;20234;-72
2022/04/29 07:55:29;;;;;;;13.90;6.82;;;;;;;8.79;82.94;103183.69;7377533;19;20007;-72
2022/04/29 07:58:03;;;;;;;12.85;7.00;;;;;;;8.57;83.13;103178.03;7383825;19;20841;-73
2022/04/29 08:00:33;;;;;;;17.48;6.90;;;;;;;8.68;82.91;103171.69;7382741;19;20022;-72
2022/04/29 08:03:23;;;;;;;11.85;6.72;;;;;;;8.77;82.77;103189.66;7382673;19;20054;-73
2022/04/29 08:05:56;;;;;;;11.88;6.68;;;;;;;8.71;82.36;103198.03;7380055;19;20014;-76
2022/04/29 08:08:26;;;;;;;17.30;6.60;;;;;;;8.84;82.37;103197.94;7382993;19;20036;-78
2022/04/29 08:10:56;;;;;;;14.40;6.28;;;;;;;8.91;82.56;103198.28;7383451;19;20010;-76
2022/04/29 08:13:28;;;;;;;13.90;5.80;;;;;;;9.02;81.62;103192.84;7377371;19;20097;-72
2022/04/29 08:15:59;;;;;;;13.82;5.70;;;;;;;8.98;82.11;103190.88;7375862;19;20010;-73
2022/04/29 08:18:29;;;;;;;15.73;7.50;;;;;;;9.01;82.15;103192.78;7373893;19;20007;-72
2022/04/29 08:20:59;;;;;;;16.98;6.45;;;;;;;9.01;81.86;103184.91;7384712;19;20566;-76
2022/04/29 08:23:29;;;;;;;17.40;6.55;;;;;;;9.11;82.20;103187.25;7387524;19;20022;-76
2022/04/29 08:25:59;;;;;;;12.38;6.63;;;;;;;9.04;81.02;103196.47;7390193;19;20083;-76
2022/04/29 08:28:32;;;;;;;12.00;5.72;;;;;;;8.98;81.41;103201.34;7393739;19;20011;-75
2022/04/29 08:31:02;;;;;;;14.27;6.00;;;;;;;9.07;81.85;103201.88;7394940;19;20047;-72
2022/04/29 08:33:33;;;;;;;16.40;6.40;;;;;;;9.12;81.43;103210.00;7390759;19;20014;-72
2022/04/29 08:36:03;;;;;;;15.50;6.00;;;;;;;9.05;81.32;103206.13;7391027;19;20014;-72
2022/04/29 08:38:33;;;;;;;15.00;7.28;;;;;;;9.11;81.21;103205.56;7389881;19;20022;-72
2022/04/29 08:41:06;;;;;;;15.93;6.97;;;;;;;9.25;80.71;103206.34;7393280;19;20026;-71
2022/04/29 08:43:41;;;;;;;14.50;6.65;;;;;;;9.23;81.07;103207.97;7388049;19;20014;-75
2022/04/29 08:46:15;;;;;;;15.07;6.25;;;;;;;9.32;81.33;103201.53;7388241;19;20010;-75
2022/04/29 08:48:49;;;;;;;19.10;6.35;;;;;;;9.40;80.82;103199.31;7384076;19;20038;-72
2022/04/29 08:51:22;;;;;;;17.42;7.30;;;;;;;9.51;79.46;103206.06;7382516;19;20465;-72
2022/04/29 08:53:51;;;;;;;14.68;6.93;;;;;;;9.42;79.98;103211.69;7378113;19;20505;-73
2022/04/29 08:59:10;;;;;;;14.23;6.20;;;;;;;9.68;78.28;103215.75;7377816;19;20010;-69
2022/04/29 09:01:43;;;;;;;12.98;6.10;;;;;;;9.86;78.23;103214.94;7378830;19;20045;-71
2022/04/29 09:04:17;;;;;;;19.80;6.00;;;;;;;9.82;78.33;103213.88;7377053;19;20014;-74
2022/04/29 09:06:53;;;;;;;17.08;6.55;;;;;;;9.60;78.67;103203.94;7377395;19;20057;-73
2022/04/29 09:09:25;;;;;;;16.92;6.70;;;;;;;9.59;78.42;103201.22;7377366;19;20015;-73
2022/04/29 09:12:22;;;;;;;18.23;6.43;;;;;;;9.75;78.27;103203.88;7376147;19;20114;-74
2022/04/29 09:15:12;;;;;;;15.70;6.50;;;;;;;9.83;77.67;103216.56;7377745;19;20475;-73
2022/04/29 09:17:49;;;;;;;13.48;5.28;;;;;;;9.89;77.14;103210.75;7378323;19;20013;-73
2022/04/29 09:20:25;;;;;;;13.57;6.15;;;;;;;9.89;76.96;103208.13;7375601;19;20023;-73
2022/04/29 09:22:55;;;;;;;16.65;6.47;;;;;;;9.81;75.75;103217.31;7375884;19;20031;-73
2022/04/29 09:25:25;;;;;;;12.60;5.22;;;;;;;9.82;76.15;103192.91;7374787;19;20057;-73
2022/04/29 09:27:56;;;;;;;14.55;5.38;;;;;;;9.83;75.96;103189.47;7375701;19;20044;-73
2022/04/29 09:30:40;;;;;;;13.25;6.03;;;;;;;9.89;75.58;103179.31;7376104;19;20486;-73
2022/04/29 09:33:23;;;;;;;12.02;6.03;;;;;;;9.91;74.70;103182.91;7379399;19;20604;-72
2022/04/29 09:36:00;;;;;;;12.18;5.65;;;;;;;10.06;74.08;103183.72;7375669;19;20051;-73
2022/04/29 09:41:24;;;;;;;11.82;5.43;;;;;;;10.07;73.82;103159.31;7375264;19;19927;-73
2022/04/29 09:43:58;;;;;;;19.58;6.63;;;;;;;10.10;74.37;103159.47;7374242;19;20014;-73
2022/04/29 09:46:33;;;;;;;10.68;5.55;;;;;;;10.26;73.78;103166.44;7376344;19;20035;-73
2022/04/29 09:49:06;;;;;;;9.27;4.95;;;;;;;10.35;73.89;103176.50;7375683;19;20055;-74
2022/04/29 09:51:52;;;;;;;13.20;5.88;;;;;;;10.39;73.85;103184.59;7376196;19;20017;-74
2022/04/29 09:54:30;;;;;;;13.80;7.13;;;;;;;10.33;72.62;103183.41;7369251;19;20498;-75
2022/04/29 09:57:10;;;;;;;11.68;5.75;;;;;;;10.21;72.76;103183.66;7376666;19;20270;-73
2022/04/29 09:59:42;;;;;;;15.10;5.60;;;;;;;10.26;72.74;103191.75;7380944;19;20010;-74
2022/04/29 10:02:16;;;;;;;11.48;5.40;;;;;;;10.38;72.30;103197.66;7383779;19;20640;-73
2022/04/29 10:04:53;;;;;;;12.88;6.03;;;;;;;10.36;73.70;103194.94;7383158;19;20021;-73
2022/04/29 10:07:26;;;;;;;14.32;5.88;;;;;;;10.41;72.77;103203.00;7377204;19;20037;-74
2022/04/29 10:10:00;;;;;;;18.08;6.07;;;;;;;10.42;72.26;103207.44;7383872;19;20010;-74
2022/04/29 10:12:30;;;;;;;14.98;5.93;;;;;;;10.45;72.36;103204.97;7379259;19;20022;-76
2022/04/29 10:15:09;;;;;;;12.38;5.65;;;;;;;10.65;71.77;103199.00;7382842;19;20328;-75
2022/04/29 10:23:11;;;;;;;13.35;5.55;;;;;;;10.88;71.16;103187.03;7381403;19;20047;-74
2022/04/29 10:25:43;;;;;;;14.97;6.27;;;;;;;11.18;70.49;103185.00;7380091;19;20507;-77
2022/04/29 10:28:25;;;;;;;20.20;7.45;;;;;;;11.19;69.50;103185.91;7379241;19;20430;-81
2022/04/29 10:31:09;;;;;;;16.60;5.18;;;;;;;11.30;69.31;103188.22;7382822;19;20015;-75
2022/04/29 10:33:42;;;;;;;15.45;6.82;;;;;;;11.42;68.67;103193.16;7379500;19;20010;-75
2022/04/29 10:36:15;;;;;;;14.20;5.38;;;;;;;11.28;69.62;103191.59;7380273;19;20015;-78
2022/04/29 10:38:48;;;;;;;14.52;6.40;;;;;;;11.53;68.11;103186.66;7380277;19;20042;-76
2022/04/29 10:41:23;;;;;;;14.40;6.15;;;;;;;11.34;68.07;103190.16;7381175;19;20011;-76
2022/04/29 10:44:07;;;;;;;11.25;5.10;;;;;;;11.75;67.96;103178.03;7385939;19;20006;-76
2022/04/29 10:46:39;;;;;;;13.93;5.97;;;;;;;11.85;67.59;103169.75;7379688;19;20094;-74
2022/04/29 10:49:29;;;;;;;14.43;6.10;;;;;;;11.92;67.29;103171.81;7383165;19;20022;-75
2022/04/29 10:52:01;;;;;;;18.48;5.72;;;;;;;12.05;65.76;103175.91;7382405;19;20021;-74
2022/04/29 10:54:48;;;;;;;11.68;5.90;;;;;;;12.10;65.57;103179.63;7378624;19;20035;-72
2022/04/29 10:57:42;;;;;;;10.70;5.65;;;;;;;12.25;65.25;103171.53;7381302;19;20011;-73
2022/04/29 11:00:14;;;;;;;10.98;6.00;;;;;;;12.20;65.06;103178.31;7378365;19;20550;-73
2022/04/29 11:02:44;;;;;;;12.73;5.90;;;;;;;12.35;64.90;103187.78;7379334;19;20476;-73
2022/04/29 11:05:38;;;;;;;11.60;6.25;;;;;;;12.40;64.54;103187.97;7378743;19;20086;-73
2022/04/29 11:08:11;;;;;;;;;;;;;;;12.84;63.71;103189.81;7379510;19;20015;-74
2022/04/29 11:10:58;;;;;;;11.20;5.63;;;;;;;12.89;62.65;103179.47;7381383;19;19922;-73
2022/04/29 11:13:30;;;;;;;11.98;5.95;;;;;;;13.04;62.30;103175.72;7379589;19;20470;-74
2022/04/29 11:16:11;;;;;;;15.15;6.18;;;;;;;13.13;61.44;103175.19;7378007;19;20017;-73
2022/04/29 11:18:42;;;;;;;12.13;5.95;;;;;;;13.36;61.02;103178.78;7381077;19;20014;-72
2022/04/29 11:26:53;;;;;;;11.32;5.32;;;;;;;12.93;59.15;103173.50;7376060;19;20051;-73
2022/04/29 11:29:23;;;;;;;10.82;6.40;;;;;;;12.89;59.76;103169.84;7388436;19;20014;-73
2022/04/29 11:31:57;;;;;;;10.00;5.63;;;;;;;12.76;59.21;103171.06;7380345;19;20011;-71
2022/04/29 11:34:30;;;;;;;11.68;6.43;;;;;;;12.89;58.96;103168.94;7375135;19;20062;-70
2022/04/29 11:37:07;;;;;;;13.13;5.15;;;;;;;13.18;58.08;103162.22;7379443;19;20358;-73
2022/04/29 11:39:37;;;;;;;12.70;5.60;;;;;;;12.91;57.79;103172.53;7379341;19;20018;-73
2022/04/29 11:42:09;;;;;;;9.65;5.60;;;;;;;12.78;58.55;103157.97;7387469;19;20269;-73
2022/04/29 11:44:43;;;;;;;10.75;5.97;;;;;;;12.86;58.96;103153.91;7389726;19;20409;-74
2022/04/29 11:47:16;;;;;;;;;;;;;;;12.94;59.58;103156.84;7387987;19;20055;-72
2022/04/29 11:49:55;;;;;;;10.98;5.70;;;;;;;12.92;57.88;103161.16;7390181;19;20316;-74
2022/04/29 11:52:30;;;;;;;10.38;5.85;;;;;;;12.92;58.15;103155.88;7389576;19;20014;-75
2022/04/29 11:55:02;;;;;;;14.93;6.55;;;;;;;12.50;57.68;103158.53;7389189;19;20312;-73
2022/04/29 11:57:34;;;;;;;11.30;5.63;;;;;;;12.52;58.82;103154.25;7390369;19;20021;-73
2022/04/29 12:00:08;;;;;;;13.88;6.93;;;;;;;12.83;59.68;103147.63;7388977;19;20671;-74
2022/04/29 12:02:38;;;;;;;13.07;6.70;;;;;;;12.95;58.91;103148.13;7391642;19;20526;-74
2022/04/29 12:05:10;;;;;;;12.50;5.95;;;;;;;12.96;58.09;103147.28;7386582;19;20246;-73
2022/04/29 12:07:44;;;;;;;11.73;5.70;;;;;;;12.80;58.52;103150.13;7380828;19;20493;-73
2022/04/29 12:10:19;;;;;;;13.95;6.72;;;;;;;12.81;58.56;103142.28;7381907;19;20015;-74
2022/04/29 12:13:00;;;;;;;12.52;6.20;;;;;;;13.33;58.88;103144.38;7380434;19;20014;-74
2022/04/29 12:15:33;;;;;;;13.13;6.57;;;;;;;13.49;58.37;103143.25;7377474;19;20021;-73